Dry Prong, LA (71423)

12:07 PM CDT on May 24, 2017 (GMT -0500)
Fairfield | | Change Station
Active Advisory: Lake Wind Advisory

Elev 169 ft 31.59 °N, 92.60 °W | Updated 10 minutes ago

Clear
Clear
71.9 °F
Feels Like 76 °F
N
4.0
Wind Variable Wind from North
Gusts 7.0 mph

Today
High -- | Low -- °F
--% Chance of Precip.
Yesterday
High -- | Low -- °F
Precip. -- in
Pressure 29.74 in
Visibility 10.0 miles
Clouds Clear
Heat Index 76 °F
Dew Point 59 °F
Humidity 64%
Rainfall 0.00 in
Snow Depth Not available.
6:08 AM 8:05 PM
Waning Crescent, 2% visible
METAR KAEX 241653Z 31018G24KT 10SM CLR 22/10 A2973 RMK AO2 SLP069 T02220100
Pressure 29.74 in
Visibility 10.0 miles
Clouds Clear
Heat Index 76 °F
Dew Point 59 °F
Humidity 64%
Rainfall 0.00 in
Snow Depth Not available.
6:08 AM 8:05 PM
Waning Crescent, 2% visible
METAR KAEX 241653Z 31018G24KT 10SM CLR 22/10 A2973 RMK AO2 SLP069 T02220100

Get Your Daily Forecast Email!

Thanks for signing up!

Be on the lookout for a verification email in your inbox.

You'll start receiving severe weather alerts in your inbox..

×

10-Day Weather Forecast

Almanac

Astronomy

May. 24, 2017 Rise Set
Actual Time
Civil Twilight
Nautical Twilight
Astronomical Twilight
Moon
Length of Visible Light
Length of Day
Tomorrow will be .
, % of the Moon is Illuminated

Today's Extremes

State Highs State Lows

Community

WunderPhotos

Category 6

Welcome to Category 6. This is the collective home for Weather Underground's featured writeups by Dr. Jeff Masters (right), Bob Henson (left), Chris Burt, and other regular contributors.

Nearby

Air Quality

  Air Quality AQ Index Pollutant
Not available.

Snow Depth

Station Depth Elevation

Earthquake Activity

City Distance Mag. Time & Date
Minimum magnitude displayed is 2.5.

Coastal Water Temperatures

Place Temperature

Stations

Nearby Weather Stations

Station Location Temp. Windchill Dew Point Humidity Wind Precip. Elev Updated Type
                   

Watches & Warnings

Lake Wind Advisory
Issued: 10:21 AM CDT May. 24, 2017 – National Weather Service

... Lake Wind Advisory remains in effect until 7 PM CDT this
evening...

* event... a tight pressure gradient will continue to develop
across the region today, resulting in northwest winds increasing
to near 15 to 20 mph with gusts as high as 30 to 35 mph at times.

* Timing... through 7 PM this evening.

* Impact... boaters should exercise caution on area lakes and
waterways due to rough chop conditions which can capsize small
craft. East and west bound high profile vehicles will be
affected by the winds and should be alert for sudden high wind
gusts.

Precautionary/preparedness actions...

A lake Wind Advisory indicates that winds will cause rough chop
on area lakes. Small boats will be especially prone to capsizing.



Palmer